Time;durP1;ratioP1;P1;durP2;ratioP2;P2;SDS_P1;SDS_P2;PMS_P1;PMS_P2;Temp;Humidity;BMP_temperature;BMP_pressure;BME280_temperature;BME280_humidity;BME280_pressure;Samples;Min_cycle;Max_cycle;Signal;HPM_P1;HPM_P2
2022/10/04 00:01:57;;;;;;;2.12;1.20;;;;;;;8.75;100.00;99911.51;1710895;83;21003;-38
2022/10/04 00:04:36;;;;;;;1.25;1.20;;;;;;;8.85;100.00;99919.09;1675427;84;20948;-39
2022/10/04 00:07:14;;;;;;;1.98;1.12;;;;;;;8.91;100.00;99922.38;1709414;83;21046;-39
2022/10/04 00:09:45;;;;;;;1.77;1.00;;;;;;;8.99;100.00;99934.30;1682549;85;21274;-38
2022/10/04 00:12:23;;;;;;;1.40;1.22;;;;;;;9.01;100.00;99929.95;1684978;83;21520;-38
2022/10/04 00:14:52;;;;;;;3.25;1.27;;;;;;;9.04;100.00;99933.77;1710472;83;20872;-38
2022/10/04 00:17:26;;;;;;;2.37;1.10;;;;;;;9.07;100.00;99936.28;1701418;84;20971;-38
2022/10/04 00:19:53;;;;;;;3.30;1.77;;;;;;;9.11;100.00;99939.20;1684657;83;20943;-38
2022/10/04 00:22:24;;;;;;;4.97;1.35;;;;;;;9.16;100.00;99946.41;1701392;84;21233;-38
2022/10/04 00:25:20;;;;;;;3.33;1.12;;;;;;;9.18;100.00;99940.77;1711065;82;20979;-38
2022/10/04 00:28:24;;;;;;;1.45;1.35;;;;;;;9.19;100.00;99947.63;1700124;84;20972;-38
2022/10/04 00:31:21;;;;;;;1.62;1.30;;;;;;;9.25;100.00;99948.41;1660010;85;21141;-38
2022/10/04 00:33:56;;;;;;;;;;;;;;;9.31;100.00;99950.85;1712916;83;20998;-38
2022/10/04 00:36:30;;;;;;;2.05;1.20;;;;;;;9.34;100.00;99949.03;1684700;83;21115;-39
2022/10/04 00:39:13;;;;;;;1.92;1.10;;;;;;;9.38;100.00;99962.74;1675443;84;21502;-38
2022/10/04 00:41:51;;;;;;;3.12;1.25;;;;;;;9.41;100.00;99960.09;1711363;83;20987;-38
2022/10/04 00:44:44;;;;;;;2.45;1.30;;;;;;;9.46;100.00;99954.38;1682566;85;20919;-38
2022/10/04 00:47:30;;;;;;;1.22;1.00;;;;;;;9.53;100.00;99966.73;1701467;84;20932;-39
2022/10/04 00:50:06;;;;;;;1.55;1.20;;;;;;;9.63;100.00;99957.91;1706985;83;21011;-38
2022/10/04 00:52:35;;;;;;;2.45;1.30;;;;;;;9.70;100.00;99971.52;1688194;84;21008;-38
2022/10/04 00:55:06;;;;;;;3.40;1.30;;;;;;;9.77;100.00;99978.70;1695950;84;21004;-38
2022/10/04 00:57:39;;;;;;;1.40;1.30;;;;;;;9.77;100.00;99978.27;1666762;84;21526;-39
2022/10/04 01:00:17;;;;;;;2.60;1.20;;;;;;;9.73;100.00;99978.36;1695899;84;21031;-39
2022/10/04 01:03:01;;;;;;;2.30;1.45;;;;;;;9.66;100.00;99977.64;1666250;84;21284;-39
2022/10/04 01:05:37;;;;;;;3.52;1.40;;;;;;;9.64;100.00;99980.70;1695794;84;21585;-39
2022/10/04 01:08:12;;;;;;;5.85;1.37;;;;;;;9.56;100.00;99982.16;1696072;84;21505;-39
2022/10/04 01:10:47;;;;;;;4.40;1.45;;;;;;;9.44;100.00;99990.19;1695982;84;20976;-39
2022/10/04 01:13:39;;;;;;;4.00;1.60;;;;;;;9.34;100.00;99989.53;1696101;84;20968;-39
2022/10/04 01:16:14;;;;;;;4.65;1.52;;;;;;;9.26;100.00;99993.55;1643538;84;22169;-39
2022/10/04 01:18:42;;;;;;;1.32;1.15;;;;;;;9.18;100.00;99988.99;1666409;84;21071;-39
2022/10/04 01:21:25;;;;;;;3.17;1.57;;;;;;;9.12;100.00;99989.95;1695900;84;20924;-39
2022/10/04 01:24:04;;;;;;;3.62;1.60;;;;;;;9.10;100.00;100000.77;1696280;84;21513;-40
2022/10/04 01:26:40;;;;;;;1.92;1.60;;;;;;;9.08;100.00;100007.69;1695997;84;20960;-39
2022/10/04 01:29:14;;;;;;;6.72;2.47;;;;;;;9.06;100.00;100011.58;1696127;84;21106;-39
2022/10/04 01:31:48;;;;;;;3.45;1.47;;;;;;;9.04;100.00;100018.50;1695936;84;21013;-40
2022/10/04 01:34:23;;;;;;;4.25;1.50;;;;;;;9.01;100.00;100024.19;1696069;84;20968;-39
2022/10/04 01:36:53;;;;;;;4.87;1.60;;;;;;;8.96;100.00;100024.69;1696093;84;21020;-40
2022/10/04 01:39:22;;;;;;;2.27;1.55;;;;;;;8.90;100.00;100030.37;1696122;83;20982;-39
2022/10/04 01:42:09;;;;;;;1.40;1.30;;;;;;;8.85;100.00;100031.36;1666423;84;21256;-40
2022/10/04 01:45:01;;;;;;;2.10;1.40;;;;;;;8.80;100.00;100020.25;1695886;84;21051;-40
2022/10/04 01:47:33;;;;;;;1.60;1.30;;;;;;;8.76;100.00;100029.80;1696210;84;20889;-39
2022/10/04 01:50:04;;;;;;;3.37;1.40;;;;;;;8.73;100.00;100029.85;1697107;83;21007;-39
2022/10/04 01:52:35;;;;;;;0.90;0.90;;;;;;;8.72;100.00;100041.05;1711094;83;20955;-39
2022/10/04 01:55:12;;;;;;;0.98;0.95;;;;;;;8.68;100.00;100047.13;1700625;84;21984;-39
2022/10/04 01:57:53;;;;;;;0.88;0.80;;;;;;;8.66;100.00;100063.07;1710849;84;21402;-39
2022/10/04 02:00:20;;;;;;;5.03;0.90;;;;;;;8.60;100.00;100058.43;1701304;84;20884;-39
2022/10/04 02:03:00;;;;;;;0.95;0.53;;;;;;;8.52;100.00;100063.30;1710932;84;21038;-39
2022/10/04 02:06:13;;;;;;;1.52;0.68;;;;;;;8.41;100.00;100066.88;1798268;79;23255;-38
2022/10/04 02:08:48;;;;;;;0.57;0.40;;;;;;;8.30;100.00;100070.05;1758027;81;20959;-39
2022/10/04 02:11:19;;;;;;;1.50;0.53;;;;;;;8.25;100.00;100064.11;1764031;81;21232;-39
2022/10/04 02:13:47;;;;;;;0.47;0.47;;;;;;;8.21;100.00;100063.33;1724354;83;20936;-39
2022/10/04 02:16:14;;;;;;;0.60;0.60;;;;;;;8.19;100.00;100071.49;1724551;83;20994;-39
2022/10/04 02:18:43;;;;;;;0.40;0.40;;;;;;;8.15;100.00;100074.99;1724473;83;20943;-39
2022/10/04 02:21:09;;;;;;;1.82;0.50;;;;;;;8.10;100.00;100076.37;1724546;83;20905;-39
2022/10/04 02:23:38;;;;;;;0.40;0.40;;;;;;;8.07;100.00;100074.27;1723025;83;21980;-39
2022/10/04 02:26:06;;;;;;;0.55;0.55;;;;;;;8.04;100.00;100079.01;1716490;83;21014;-39
2022/10/04 02:28:35;;;;;;;0.50;0.50;;;;;;;8.03;100.00;100084.63;1709197;84;20999;-39
2022/10/04 02:33:49;;;;;;;0.60;0.60;;;;;;;8.01;100.00;100088.08;1709133;84;20971;-38
2022/10/04 02:36:16;;;;;;;0.40;0.40;;;;;;;8.01;100.00;100082.92;1709482;84;21064;-39
2022/10/04 02:38:49;;;;;;;2.92;0.50;;;;;;;8.01;100.00;100087.66;1680675;84;21483;-38
2022/10/04 02:41:50;;;;;;;1.35;0.42;;;;;;;8.00;100.00;100087.24;1708451;84;20983;-39
2022/10/04 02:44:30;;;;;;;5.37;0.40;;;;;;;7.99;100.00;100088.54;1708991;84;21020;-40
2022/10/04 02:47:12;;;;;;;0.37;0.30;;;;;;;7.97;100.00;100092.44;1680776;84;20990;-38
2022/10/04 02:49:56;;;;;;;0.45;0.40;;;;;;;7.98;100.00;100098.02;1709439;84;21195;-39
2022/10/04 02:52:43;;;;;;;1.20;0.40;;;;;;;7.96;100.00;100093.74;1709301;82;21043;-39
2022/10/04 02:55:29;;;;;;;0.93;0.60;;;;;;;7.95;100.00;100095.45;1706198;84;21015;-39
2022/10/04 02:57:57;;;;;;;1.45;0.50;;;;;;;7.93;100.00;100095.91;1708723;84;21019;-39
2022/10/04 03:00:29;;;;;;;4.78;0.60;;;;;;;7.89;100.00;100098.11;1708958;84;20928;-39
2022/10/04 03:03:16;;;;;;;1.22;0.33;;;;;;;7.86;100.00;100100.73;1708503;84;21292;-39
2022/10/04 03:05:47;;;;;;;2.08;0.30;;;;;;;7.84;100.00;100106.34;1704354;83;21612;-39
2022/10/04 03:08:13;;;;;;;1.35;0.40;;;;;;;7.83;100.00;100095.20;1710628;83;20979;-39
2022/10/04 03:10:41;;;;;;;0.68;0.40;;;;;;;7.82;100.00;100097.33;1675828;84;21474;-39
2022/10/04 03:13:08;;;;;;;1.65;0.50;;;;;;;7.80;100.00;100100.82;1685243;83;20927;-39
2022/10/04 03:15:36;;;;;;;4.67;0.50;;;;;;;7.80;100.00;100096.50;1702023;84;22083;-39
2022/10/04 03:18:03;;;;;;;0.33;0.33;;;;;;;7.82;100.00;100096.50;1711098;83;20955;-40
2022/10/04 03:20:31;;;;;;;0.78;0.47;;;;;;;7.83;100.00;100095.63;1701472;84;21481;-39
2022/10/04 03:22:57;;;;;;;1.20;0.50;;;;;;;7.82;100.00;100099.91;1684669;83;21105;-39
2022/10/04 03:25:49;;;;;;;0.40;0.40;;;;;;;7.80;100.00;100091.80;1701554;84;20999;-39
2022/10/04 03:28:15;;;;;;;0.40;0.40;;;;;;;7.81;100.00;100094.34;1661707;85;22182;-39
2022/10/04 03:30:43;;;;;;;2.72;0.40;;;;;;;7.79;100.00;100094.80;1710997;83;21382;-38
2022/10/04 03:33:22;;;;;;;3.47;0.50;;;;;;;7.80;100.00;100096.95;1701624;84;20956;-39
2022/10/04 03:35:52;;;;;;;0.80;0.40;;;;;;;7.79;100.00;100096.09;1711237;83;20979;-39
2022/10/04 03:38:19;;;;;;;0.45;0.45;;;;;;;7.81;100.00;100096.92;1675640;84;21043;-39
2022/10/04 03:40:57;;;;;;;1.10;0.65;;;;;;;7.85;100.00;100101.19;1690468;83;21152;-39
2022/10/04 03:43:33;;;;;;;0.53;0.53;;;;;;;7.85;100.00;100116.66;1701396;84;21007;-38
2022/10/04 03:46:00;;;;;;;0.65;0.40;;;;;;;7.83;100.00;100106.80;1711052;83;20975;-38
2022/10/04 03:48:34;;;;;;;1.87;1.10;;;;;;;7.80;100.00;100102.11;1701485;84;20952;-39
2022/10/04 03:51:03;;;;;;;0.88;0.70;;;;;;;7.78;100.00;100108.56;1685618;83;20982;-39
2022/10/04 03:53:42;;;;;;;0.50;0.50;;;;;;;7.80;100.00;100108.55;1701490;84;21265;-40
2022/10/04 03:56:16;;;;;;;2.70;0.40;;;;;;;7.76;100.00;100109.88;1711199;83;20924;-39
2022/10/04 03:58:45;;;;;;;0.40;0.40;;;;;;;7.76;100.00;100119.32;1701511;84;21633;-38
2022/10/04 04:01:24;;;;;;;0.37;0.37;;;;;;;7.75;100.00;100121.06;1711091;83;20979;-38
2022/10/04 04:04:01;;;;;;;1.65;0.40;;;;;;;7.74;100.00;100124.51;1701827;84;20976;-39
2022/10/04 04:06:58;;;;;;;0.40;0.40;;;;;;;7.73;100.00;100127.96;1720151;83;21224;-39
2022/10/04 04:09:36;;;;;;;1.60;0.53;;;;;;;7.72;100.00;100131.83;1682159;84;21018;-39
2022/10/04 04:12:12;;;;;;;0.80;0.47;;;;;;;7.68;100.00;100131.00;1721656;83;20911;-39
2022/10/04 04:14:39;;;;;;;2.45;0.40;;;;;;;7.65;100.00;100133.62;1721753;83;20991;-39
2022/10/04 04:17:26;;;;;;;0.42;0.42;;;;;;;7.62;100.00;100138.39;1692733;84;20978;-39
2022/10/04 04:20:02;;;;;;;0.25;0.25;;;;;;;7.61;100.00;100134.53;1692717;84;21353;-39
2022/10/04 04:22:30;;;;;;;0.33;0.30;;;;;;;7.63;100.00;100136.65;1684750;85;20998;-39
2022/10/04 04:25:04;;;;;;;5.30;0.80;;;;;;;7.66;100.00;100140.47;1676871;84;21016;-39
2022/10/04 04:27:33;;;;;;;0.63;0.63;;;;;;;7.69;100.00;100143.02;1703590;84;21568;-38
2022/10/04 04:30:01;;;;;;;4.17;0.50;;;;;;;7.72;100.00;100140.42;1703312;84;20971;-39
2022/10/04 04:32:39;;;;;;;2.00;0.42;;;;;;;7.77;100.00;100144.22;1703270;84;21128;-39
2022/10/04 04:35:10;;;;;;;2.62;0.50;;;;;;;7.82;100.00;100141.59;1703249;84;21012;-38
2022/10/04 04:37:37;;;;;;;2.50;0.45;;;;;;;7.85;100.00;100149.28;1701589;84;20960;-39
2022/10/04 04:40:23;;;;;;;0.40;0.40;;;;;;;7.91;100.00;100160.80;1703222;84;21003;-39
2022/10/04 04:42:50;;;;;;;0.55;0.42;;;;;;;7.94;100.00;100156.05;1663229;84;20995;-39
2022/10/04 04:45:21;;;;;;;1.65;0.30;;;;;;;7.97;100.00;100160.75;1721601;83;21958;-38
2022/10/04 04:47:51;;;;;;;0.30;0.30;;;;;;;7.98;100.00;100159.88;1692775;84;20943;-38
2022/10/04 04:50:30;;;;;;;1.17;0.50;;;;;;;8.03;100.00;100172.27;1690672;84;20991;-38
2022/10/04 04:53:16;;;;;;;0.30;0.30;;;;;;;8.08;100.00;100170.06;1721321;83;20986;-38
2022/10/04 04:55:46;;;;;;;0.30;0.30;;;;;;;8.18;100.00;100168.64;1692956;84;21050;-39
2022/10/04 04:58:20;;;;;;;0.60;0.40;;;;;;;8.25;100.00;100172.42;1692897;84;21790;-39
2022/10/04 05:00:59;;;;;;;0.33;0.30;;;;;;;8.30;100.00;100174.07;1692152;84;21585;-39
2022/10/04 05:03:28;;;;;;;0.47;0.42;;;;;;;8.38;100.00;100174.39;1692921;83;20999;-38
2022/10/04 05:05:56;;;;;;;0.78;0.60;;;;;;;8.45;100.00;100179.87;1721478;83;21058;-38
2022/10/04 05:08:28;;;;;;;0.47;0.40;;;;;;;8.52;100.00;100181.55;1721425;83;21519;-39
2022/10/04 05:11:15;;;;;;;1.40;0.40;;;;;;;8.57;100.00;100186.20;1692701;84;21276;-38
2022/10/04 05:13:55;;;;;;;2.67;0.57;;;;;;;8.63;100.00;100187.39;1692497;84;21007;-39
2022/10/04 05:16:48;;;;;;;1.77;0.50;;;;;;;8.71;100.00;100192.86;1692714;84;21571;-39
2022/10/04 05:19:23;;;;;;;0.40;0.40;;;;;;;8.77;100.00;100199.25;1721445;83;20983;-39
2022/10/04 05:21:54;;;;;;;1.85;0.50;;;;;;;8.82;100.00;100192.28;1721629;83;21038;-39
2022/10/04 05:24:32;;;;;;;1.22;0.55;;;;;;;8.85;100.00;100199.98;1692471;84;21254;-39
2022/10/04 05:27:07;;;;;;;3.62;0.65;;;;;;;8.90;100.00;100209.78;1692568;84;20958;-39
2022/10/04 05:29:38;;;;;;;0.83;0.73;;;;;;;8.94;100.00;100212.31;1690165;84;20908;-39
2022/10/04 05:32:48;;;;;;;1.72;0.53;;;;;;;8.98;100.00;100204.97;1721826;83;20931;-39
2022/10/04 05:35:21;;;;;;;0.80;0.80;;;;;;;9.04;100.00;100210.02;1692669;84;20991;-39
2022/10/04 05:38:16;;;;;;;0.60;0.47;;;;;;;9.10;100.00;100216.83;1692668;84;21250;-39
2022/10/04 05:41:05;;;;;;;4.15;0.40;;;;;;;9.18;100.00;100221.41;1692722;84;20974;-39
2022/10/04 05:43:46;;;;;;;1.45;0.60;;;;;;;9.24;100.00;100231.64;1692590;84;20947;-40
2022/10/04 05:46:18;;;;;;;0.88;0.40;;;;;;;9.30;100.00;100230.69;1692820;84;21571;-39
2022/10/04 05:48:47;;;;;;;1.05;0.55;;;;;;;9.34;100.00;100237.05;1692915;84;21436;-39
2022/10/04 05:51:21;;;;;;;0.30;0.30;;;;;;;9.37;100.00;100238.74;1692623;84;21165;-39
2022/10/04 05:53:48;;;;;;;0.75;0.75;;;;;;;9.39;100.00;100239.57;1690272;84;21045;-39
2022/10/04 05:56:50;;;;;;;1.42;0.62;;;;;;;9.43;100.00;100238.63;1694983;83;20943;-39
2022/10/04 05:59:30;;;;;;;0.88;0.65;;;;;;;9.49;100.00;100242.42;1692592;84;20900;-38
2022/10/04 06:02:21;;;;;;;3.50;0.40;;;;;;;9.59;100.00;100244.37;1692940;84;21034;-39
2022/10/04 06:05:17;;;;;;;1.30;0.70;;;;;;;9.65;100.00;100242.14;1721276;83;21106;-38
2022/10/04 06:07:58;;;;;;;4.87;0.70;;;;;;;9.71;100.00;100244.60;1721473;83;20968;-38
2022/10/04 06:10:46;;;;;;;2.58;0.50;;;;;;;9.77;100.00;100241.06;1692471;84;21451;-39
2022/10/04 06:13:24;;;;;;;1.37;0.60;;;;;;;9.86;100.00;100248.66;1692642;84;21034;-39
2022/10/04 06:16:19;;;;;;;1.07;0.60;;;;;;;9.93;100.00;100255.84;1721281;82;21461;-39
2022/10/04 06:19:30;;;;;;;2.95;0.60;;;;;;;9.96;100.00;100254.48;1721625;83;21250;-39
2022/10/04 06:22:18;;;;;;;4.08;0.68;;;;;;;10.01;100.00;100255.28;1689777;84;21003;-39
2022/10/04 06:24:53;;;;;;;2.47;0.68;;;;;;;10.03;100.00;100266.44;1690935;84;20943;-39
2022/10/04 06:27:39;;;;;;;2.98;0.60;;;;;;;10.02;100.00;100266.45;1721844;83;20935;-39
2022/10/04 06:30:14;;;;;;;0.50;0.50;;;;;;;10.02;100.00;100262.16;1692723;84;21018;-39
2022/10/04 06:33:24;;;;;;;4.33;0.80;;;;;;;10.08;100.00;100271.96;1668061;84;21479;-39
2022/10/04 06:36:21;;;;;;;0.60;0.60;;;;;;;10.11;100.00;100274.48;1692627;84;20966;-39
2022/10/04 06:38:54;;;;;;;;;;;;;;;10.13;100.00;100268.84;1695104;84;20963;-39
2022/10/04 06:41:36;;;;;;;1.40;0.70;;;;;;;10.17;100.00;100282.11;1686953;85;20143;-39
2022/10/04 06:44:29;;;;;;;2.85;0.60;;;;;;;10.19;100.00;100281.22;1703022;84;20948;-39
2022/10/04 06:47:11;;;;;;;2.77;0.60;;;;;;;10.26;100.00;100287.13;1702997;84;21124;-39
2022/10/04 06:49:57;;;;;;;0.70;0.60;;;;;;;10.34;100.00;100295.58;1720673;83;21057;-39
2022/10/04 06:52:53;;;;;;;0.50;0.50;;;;;;;10.42;100.00;100292.88;1692544;84;21010;-39
2022/10/04 06:55:55;;;;;;;2.63;0.80;;;;;;;10.57;100.00;100293.42;1692939;84;20991;-39
2022/10/04 06:58:36;;;;;;;0.90;0.53;;;;;;;10.79;100.00;100296.42;1692840;84;20994;-39
2022/10/04 07:01:33;;;;;;;4.33;0.80;;;;;;;11.10;100.00;100304.80;1692681;83;21174;-39
2022/10/04 07:04:15;;;;;;;0.90;0.90;;;;;;;11.29;97.81;100306.50;1690798;84;20955;-39
2022/10/04 07:06:53;;;;;;;0.88;0.88;;;;;;;11.51;98.17;100304.69;1720917;83;20900;-39
2022/10/04 07:09:23;;;;;;;0.80;0.60;;;;;;;11.76;97.54;100300.19;1690708;84;20980;-39
2022/10/04 07:12:07;;;;;;;2.10;0.82;;;;;;;12.00;95.70;100302.59;1692848;84;21007;-39
2022/10/04 07:14:37;;;;;;;0.80;0.80;;;;;;;12.21;94.90;100304.20;1721737;83;21204;-38
2022/10/04 07:17:20;;;;;;;4.22;0.90;;;;;;;12.43;94.16;100309.67;1721567;83;20927;-38
2022/10/04 07:19:48;;;;;;;6.22;0.68;;;;;;;12.62;93.84;100306.52;1692751;84;20939;-39
2022/10/04 07:22:38;;;;;;;3.72;0.70;;;;;;;12.84;90.58;100308.48;1692929;84;21579;-38
2022/10/04 07:25:26;;;;;;;1.10;0.70;;;;;;;12.90;89.91;100313.05;1692683;84;21002;-38
2022/10/04 07:31:09;;;;;;;0.90;0.40;;;;;;;13.06;88.30;100317.78;1692665;84;21057;-37
2022/10/04 07:33:59;;;;;;;0.78;0.60;;;;;;;13.08;87.38;100310.80;1645716;84;20943;-38
2022/10/04 07:36:47;;;;;;;2.25;0.70;;;;;;;13.07;86.39;100310.39;1691206;84;21003;-37
2022/10/04 07:39:31;;;;;;;2.58;0.55;;;;;;;12.91;84.29;100321.24;1649708;84;21018;-37
2022/10/04 07:42:06;;;;;;;1.40;0.60;;;;;;;12.63;85.96;100325.09;1692611;83;21379;-37
2022/10/04 07:44:38;;;;;;;3.27;0.82;;;;;;;12.51;85.50;100326.33;1720942;83;20942;-37
2022/10/04 07:47:28;;;;;;;3.40;0.55;;;;;;;12.42;88.23;100327.44;1721434;83;20947;-37
2022/10/04 07:49:57;;;;;;;6.35;1.37;;;;;;;12.43;88.34;100329.56;1692670;84;21029;-38
2022/10/04 07:52:43;;;;;;;2.35;0.88;;;;;;;12.32;87.97;100339.81;1692771;84;20987;-38
2022/10/04 07:55:45;;;;;;;0.50;0.50;;;;;;;12.21;88.19;100337.52;1692778;84;21552;-37
2022/10/04 07:58:45;;;;;;;9.33;0.85;;;;;;;12.11;88.55;100342.98;1692707;84;20891;-38
2022/10/04 08:01:23;;;;;;;1.35;0.80;;;;;;;12.03;90.27;100344.05;1692854;84;20899;-38
2022/10/04 08:04:06;;;;;;;2.67;0.70;;;;;;;11.91;90.04;100340.42;1692810;83;20872;-37
2022/10/04 08:06:42;;;;;;;0.70;0.62;;;;;;;11.75;90.78;100343.86;1692664;84;21037;-37
2022/10/04 08:09:42;;;;;;;2.00;0.80;;;;;;;11.67;91.35;100347.94;1693115;84;20955;-38
2022/10/04 08:12:26;;;;;;;1.10;0.70;;;;;;;11.57;91.70;100349.06;1692646;84;20884;-39
2022/10/04 08:15:18;;;;;;;1.87;0.70;;;;;;;11.48;92.18;100356.15;1691270;84;20955;-38
2022/10/04 08:18:09;;;;;;;5.62;0.80;;;;;;;11.43;93.08;100353.28;1704395;83;21030;-38
2022/10/04 08:20:44;;;;;;;2.12;1.07;;;;;;;11.39;93.02;100362.02;1692870;84;21066;-38
2022/10/04 08:23:35;;;;;;;3.05;1.20;;;;;;;11.40;93.16;100360.67;1691101;84;21382;-39
2022/10/04 08:26:27;;;;;;;1.72;1.25;;;;;;;11.40;94.04;100363.27;1721629;83;20935;-38
2022/10/04 08:29:43;;;;;;;4.45;1.40;;;;;;;11.49;94.68;100364.80;1692727;84;20974;-39
2022/10/04 08:32:31;;;;;;;3.02;1.07;;;;;;;11.60;95.25;100369.72;1692767;84;21454;-38
2022/10/04 08:35:42;;;;;;;2.10;1.00;;;;;;;11.74;92.05;100374.58;1666878;84;21006;-38
2022/10/04 08:38:41;;;;;;;1.27;0.78;;;;;;;11.79;92.57;100363.64;1692680;83;21459;-38
2022/10/04 08:41:19;;;;;;;4.42;0.70;;;;;;;11.88;91.31;100380.28;1692639;84;20947;-40
2022/10/04 08:44:14;;;;;;;6.30;0.70;;;;;;;11.87;91.27;100380.31;1676979;84;20963;-39
2022/10/04 08:47:19;;;;;;;4.33;0.70;;;;;;;11.85;92.22;100378.20;1690985;84;21370;-38
2022/10/04 08:50:14;;;;;;;2.77;0.80;;;;;;;11.82;92.09;100386.06;1721673;83;20927;-39
2022/10/04 08:52:57;;;;;;;2.40;0.90;;;;;;;11.65;91.44;100386.02;1692554;84;21105;-39
2022/10/04 08:56:07;;;;;;;4.42;0.90;;;;;;;11.57;92.83;100386.66;1692874;84;21603;-39
2022/10/04 08:59:16;;;;;;;2.05;0.70;;;;;;;11.46;93.03;100398.11;1692706;84;21401;-38
2022/10/04 09:02:03;;;;;;;2.20;1.00;;;;;;;11.33;92.80;100403.17;1692715;84;20892;-38
2022/10/04 09:04:56;;;;;;;5.65;1.47;;;;;;;11.28;93.63;100394.66;1692562;83;20951;-38
2022/10/04 09:07:53;;;;;;;1.72;1.62;;;;;;;11.24;94.10;100404.66;1692650;83;21556;-38
2022/10/04 09:10:46;;;;;;;1.77;1.52;;;;;;;11.23;95.03;100402.52;1690628;84;20920;-39
2022/10/04 09:13:46;;;;;;;3.15;1.70;;;;;;;11.30;95.12;100404.55;1721252;82;21038;-39
2022/10/04 09:16:45;;;;;;;1.25;1.07;;;;;;;11.50;94.96;100407.97;1691140;84;21600;-39
2022/10/04 09:19:22;;;;;;;3.00;0.78;;;;;;;11.68;92.80;100404.09;1721585;83;21389;-39
2022/10/04 09:22:03;;;;;;;5.72;1.25;;;;;;;11.80;90.38;100409.42;1692562;84;21771;-38
2022/10/04 09:24:54;;;;;;;2.50;0.70;;;;;;;11.96;91.23;100411.66;1692529;84;20892;-39
2022/10/04 09:27:55;;;;;;;2.80;1.00;;;;;;;12.04;88.72;100415.80;1692679;84;20975;-38
2022/10/04 09:31:20;;;;;;;4.33;0.80;;;;;;;12.12;89.38;100416.04;1692641;84;20999;-39
2022/10/04 09:34:09;;;;;;;1.25;0.80;;;;;;;12.25;87.84;100412.25;1692825;84;21500;-39
2022/10/04 09:36:57;;;;;;;2.15;0.75;;;;;;;12.33;88.40;100416.78;1692681;84;21134;-38
2022/10/04 09:39:48;;;;;;;3.42;0.80;;;;;;;12.43;85.75;100416.53;1692514;84;20959;-39
2022/10/04 09:42:29;;;;;;;5.33;0.82;;;;;;;12.66;87.24;100418.52;1679780;83;20903;-39
2022/10/04 09:45:19;;;;;;;1.45;0.70;;;;;;;12.90;86.50;100424.75;1703151;84;20960;-39
2022/10/04 09:48:15;;;;;;;0.75;0.70;;;;;;;13.08;86.02;100422.06;1691644;84;20993;-38
2022/10/04 09:51:11;;;;;;;3.37;0.50;;;;;;;13.15;83.90;100424.04;1721469;83;21030;-39
2022/10/04 09:54:00;;;;;;;4.67;0.70;;;;;;;13.19;82.54;100433.44;1692656;84;20856;-39
2022/10/04 09:57:07;;;;;;;1.05;0.80;;;;;;;13.22;82.60;100435.11;1692682;84;21030;-39
2022/10/04 09:59:50;;;;;;;2.70;1.05;;;;;;;13.31;83.29;100436.59;1692544;84;21486;-39
2022/10/04 10:02:27;;;;;;;1.17;0.88;;;;;;;13.38;81.00;100431.59;1692945;84;20946;-38
2022/10/04 10:05:02;;;;;;;0.70;0.70;;;;;;;13.11;80.89;100437.16;1690276;83;21304;-38
2022/10/04 10:07:38;;;;;;;4.40;0.90;;;;;;;12.85;82.61;100432.27;1678240;83;20979;-39
2022/10/04 10:14:00;;;;;;;3.25;0.75;;;;;;;12.73;86.92;100444.72;1692638;84;20962;-39
2022/10/04 10:16:59;;;;;;;1.20;0.60;;;;;;;12.71;86.17;100446.94;1721476;83;21464;-39
2022/10/04 10:20:08;;;;;;;8.08;1.30;;;;;;;12.64;85.99;100449.70;1721557;83;21226;-38
2022/10/04 10:23:09;;;;;;;1.37;0.47;;;;;;;12.72;85.32;100448.64;1666751;84;21007;-39
2022/10/04 10:26:08;;;;;;;3.05;0.55;;;;;;;12.88;85.54;100451.23;1687059;85;21045;-38
2022/10/04 10:28:45;;;;;;;2.22;0.55;;;;;;;13.08;86.39;100452.41;1692033;84;20994;-39
2022/10/04 10:32:06;;;;;;;7.87;0.70;;;;;;;13.20;83.10;100447.30;1691349;84;20924;-39
2022/10/04 10:35:00;;;;;;;1.15;0.88;;;;;;;13.26;84.56;100451.02;1721638;83;21104;-39
2022/10/04 10:37:55;;;;;;;1.80;0.60;;;;;;;13.59;84.46;100450.08;1692789;84;20958;-38
2022/10/04 10:40:39;;;;;;;2.17;0.60;;;;;;;13.69;83.95;100451.48;1692879;84;20939;-39
2022/10/04 10:43:28;;;;;;;5.47;0.65;;;;;;;13.69;83.30;100442.84;1721492;83;21611;-39
2022/10/04 10:46:22;;;;;;;2.80;0.70;;;;;;;13.50;82.95;100456.41;1721705;83;21006;-38
2022/10/04 10:49:06;;;;;;;1.98;0.70;;;;;;;13.19;84.10;100454.70;1692891;84;21170;-38
2022/10/04 10:52:32;;;;;;;2.92;0.70;;;;;;;13.04;86.00;100454.70;1692844;84;20895;-38
2022/10/04 10:55:28;;;;;;;1.15;0.98;;;;;;;12.99;87.64;100464.34;1692898;84;20950;-39
2022/10/04 10:58:36;;;;;;;3.67;1.20;;;;;;;13.00;88.24;100451.76;1667251;84;21473;-39
2022/10/04 11:01:23;;;;;;;3.98;1.52;;;;;;;13.00;87.25;100459.55;1692715;84;21686;-39
2022/10/04 11:04:27;;;;;;;4.58;0.72;;;;;;;12.99;85.49;100459.15;1687158;85;21174;-39
2022/10/04 11:07:41;;;;;;;0.90;0.60;;;;;;;12.84;81.50;100463.91;1702765;84;21011;-39
2022/10/04 11:10:38;;;;;;;0.80;0.68;;;;;;;12.68;82.43;100469.09;1617685;87;21558;-39
2022/10/04 11:13:25;;;;;;;2.85;0.82;;;;;;;12.52;83.24;100466.93;1643590;87;21952;-39
2022/10/04 11:16:25;;;;;;;1.10;0.80;;;;;;;12.35;83.89;100473.83;1624970;88;20968;-39
2022/10/04 11:19:32;;;;;;;4.10;0.70;;;;;;;12.26;85.63;100485.33;1677417;84;21287;-39
2022/10/04 11:22:15;;;;;;;5.05;0.65;;;;;;;12.24;86.36;100484.48;1698182;84;20956;-39
2022/10/04 11:25:05;;;;;;;1.55;0.60;;;;;;;12.26;86.45;100485.75;1698300;84;20915;-39
2022/10/04 11:28:01;;;;;;;0.88;0.60;;;;;;;12.29;88.56;100490.86;1698362;84;21569;-38
2022/10/04 11:31:12;;;;;;;0.75;0.72;;;;;;;12.40;90.68;100497.09;1698633;84;21521;-38
2022/10/04 11:34:10;;;;;;;0.93;0.80;;;;;;;12.49;88.12;100506.80;1698407;83;21159;-38
2022/10/04 11:37:05;;;;;;;1.07;1.05;;;;;;;12.47;87.78;100505.11;1698260;84;20968;-38
2022/10/04 11:40:17;;;;;;;2.05;0.95;;;;;;;12.42;88.33;100501.36;1698525;84;20968;-38
2022/10/04 11:43:23;;;;;;;4.37;1.15;;;;;;;12.36;86.67;100506.68;1670516;84;20995;-40
2022/10/04 11:46:09;;;;;;;1.10;0.88;;;;;;;12.28;87.72;100506.03;1698443;84;20944;-39
2022/10/04 11:48:52;;;;;;;0.40;0.40;;;;;;;12.13;88.39;100520.23;1698480;84;21247;-39
2022/10/04 11:51:49;;;;;;;0.60;0.60;;;;;;;11.88;87.96;100527.26;1698183;84;21054;-39
2022/10/04 11:54:30;;;;;;;0.40;0.40;;;;;;;11.62;88.79;100528.69;1698398;84;20999;-39
2022/10/04 11:57:30;;;;;;;0.60;0.50;;;;;;;11.40;88.00;100533.02;1667945;84;21491;-39
2022/10/04 12:00:13;;;;;;;0.30;0.30;;;;;;;11.33;88.58;100536.17;1698472;84;21600;-39
2022/10/04 12:02:57;;;;;;;0.90;0.57;;;;;;;11.27;89.79;100540.66;1696330;84;21162;-39
2022/10/04 12:05:36;;;;;;;0.30;0.30;;;;;;;11.19;90.16;100546.81;1698182;83;20956;-39
2022/10/04 12:08:52;;;;;;;0.30;0.30;;;;;;;11.18;89.88;100545.11;1699140;84;21372;-38
2022/10/04 12:14:56;;;;;;;0.35;0.30;;;;;;;11.14;90.29;100552.99;1692631;84;20943;-39
2022/10/04 12:17:51;;;;;;;1.90;0.40;;;;;;;11.10;91.35;100559.96;1692884;84;21060;-39
2022/10/04 12:20:52;;;;;;;0.50;0.50;;;;;;;11.10;91.53;100556.08;1692616;84;20964;-39
2022/10/04 12:24:07;;;;;;;0.75;0.60;;;;;;;11.05;90.21;100564.38;1690986;84;20999;-39
2022/10/04 12:27:05;;;;;;;0.35;0.30;;;;;;;11.03;91.35;100564.39;1721712;83;21457;-39
2022/10/04 12:29:59;;;;;;;1.20;0.65;;;;;;;10.99;92.23;100576.99;1692692;84;20935;-39
2022/10/04 12:32:35;;;;;;;2.83;0.50;;;;;;;10.93;92.74;100572.77;1687087;85;21181;-39
2022/10/04 12:35:22;;;;;;;1.62;0.60;;;;;;;10.90;95.06;100574.12;1677685;84;21039;-38
2022/10/04 12:38:27;;;;;;;0.47;0.47;;;;;;;10.87;93.82;100579.36;1703303;84;21102;-39
2022/10/04 12:41:28;;;;;;;1.72;0.57;;;;;;;10.84;93.65;100587.19;1703236;84;20984;-39
2022/10/04 12:44:31;;;;;;;0.80;0.60;;;;;;;10.83;93.73;100577.71;1703138;84;20995;-38
2022/10/04 12:47:21;;;;;;;0.70;0.70;;;;;;;10.83;94.39;100586.78;1702859;84;21349;-39
2022/10/04 12:50:21;;;;;;;1.47;0.80;;;;;;;10.84;94.52;100587.19;1703151;84;21533;-39
2022/10/04 12:53:22;;;;;;;4.17;0.80;;;;;;;10.82;94.86;100592.84;1703191;84;21062;-39
2022/10/04 12:56:21;;;;;;;0.82;0.82;;;;;;;10.80;94.25;100595.90;1703156;84;20996;-39
2022/10/04 12:59:21;;;;;;;0.82;0.80;;;;;;;10.79;93.70;100605.84;1668592;84;21068;-39